Time;durP1;ratioP1;P1;durP2;ratioP2;P2;SDS_P1;SDS_P2;PMS_P1;PMS_P2;Temp;Humidity;BMP_temperature;BMP_pressure;BME280_temperature;BME280_humidity;BME280_pressure;Samples;Min_cycle;Max_cycle;Signal;HPM_P1;HPM_P2
2022/08/16 00:00:47;;;;;;;1.80;1.70;;;;;;;23.00;55.26;95095.50;4885804;29;20236;-82
2022/08/16 00:03:13;;;;;;;2.38;1.65;;;;;;;22.98;55.46;95101.03;4888298;29;20219;-81
2022/08/16 00:05:40;;;;;;;1.75;1.65;;;;;;;23.02;55.16;95096.03;4884971;29;20302;-81
2022/08/16 00:08:07;;;;;;;2.15;1.80;;;;;;;23.03;55.25;95105.47;4887057;29;20207;-81
2022/08/16 00:10:35;;;;;;;1.73;1.63;;;;;;;22.95;55.44;95101.53;4904305;29;20337;-81
2022/08/16 00:13:02;;;;;;;1.80;1.70;;;;;;;22.91;55.91;95099.72;4905462;29;20227;-81
2022/08/16 00:15:36;;;;;;;1.77;1.67;;;;;;;22.84;56.37;95107.88;4905265;29;20234;-81
2022/08/16 00:18:03;;;;;;;1.73;1.63;;;;;;;22.89;55.98;95104.47;4906160;29;20207;-81
2022/08/16 00:20:30;;;;;;;2.20;1.70;;;;;;;22.83;56.78;95105.50;4887287;29;20219;-81
2022/08/16 00:22:56;;;;;;;2.00;1.80;;;;;;;22.85;56.02;95106.81;4887780;29;20223;-81
2022/08/16 00:25:24;;;;;;;2.70;1.70;;;;;;;22.83;56.50;95110.75;4904482;29;20242;-81
2022/08/16 00:27:53;;;;;;;1.52;1.42;;;;;;;22.82;56.43;95102.09;4906067;29;20211;-81
2022/08/16 00:30:21;;;;;;;1.70;1.60;;;;;;;22.84;56.41;95099.22;4888128;29;20270;-81
2022/08/16 00:32:50;;;;;;;1.60;1.50;;;;;;;22.77;56.42;95101.28;4887556;29;20235;-81
2022/08/16 00:35:20;;;;;;;1.70;1.60;;;;;;;22.82;56.71;95098.69;4903012;29;20226;-81
2022/08/16 00:37:48;;;;;;;2.00;1.80;;;;;;;22.80;56.71;95090.28;4906061;29;20202;-81
2022/08/16 00:40:18;;;;;;;1.80;1.70;;;;;;;22.75;56.88;95094.47;4887902;29;20211;-81
2022/08/16 00:42:45;;;;;;;1.80;1.70;;;;;;;22.74;56.65;95095.50;4886007;29;20227;-81
2022/08/16 00:45:27;;;;;;;1.90;1.55;;;;;;;22.78;56.92;95093.16;4901763;29;20294;-81
2022/08/16 00:47:55;;;;;;;1.90;1.80;;;;;;;22.77;56.61;95101.28;4904518;29;20207;-81
2022/08/16 00:50:25;;;;;;;1.88;1.70;;;;;;;22.70;57.29;95110.22;4890177;29;20207;-81
2022/08/16 00:52:51;;;;;;;1.63;1.52;;;;;;;22.77;56.79;95096.03;4904566;29;20234;-81
2022/08/16 00:55:20;;;;;;;1.80;1.70;;;;;;;22.78;56.75;95103.69;4907604;29;20282;-80
2022/08/16 00:57:49;;;;;;;2.05;1.70;;;;;;;22.69;57.18;95100.78;4894384;29;20207;-81
2022/08/16 01:00:17;;;;;;;4.68;2.08;;;;;;;22.69;57.19;95092.13;4901257;29;20207;-81
2022/08/16 01:02:44;;;;;;;2.13;1.92;;;;;;;22.75;56.57;95099.69;4894988;29;20250;-81
2022/08/16 01:05:11;;;;;;;1.90;1.58;;;;;;;22.73;56.88;95093.94;4902240;29;20242;-80
2022/08/16 01:07:42;;;;;;;1.67;1.58;;;;;;;22.69;56.86;95098.16;4894779;29;20203;-81
2022/08/16 01:10:08;;;;;;;1.65;1.55;;;;;;;22.73;56.48;95091.31;4899257;29;20656;-81
2022/08/16 01:12:35;;;;;;;1.92;1.80;;;;;;;22.77;56.69;95096.84;4897869;29;20207;-81
2022/08/16 01:15:02;;;;;;;1.92;1.60;;;;;;;22.78;56.46;95087.94;4884378;29;20232;-81
2022/08/16 01:17:33;;;;;;;1.80;1.67;;;;;;;22.79;56.11;95089.50;4890821;29;20203;-81
2022/08/16 01:20:03;;;;;;;1.70;1.60;;;;;;;22.77;56.61;95090.78;4889835;29;20212;-81
2022/08/16 01:22:37;;;;;;;2.63;1.60;;;;;;;22.69;56.86;95094.75;4890032;29;20294;-81
2022/08/16 01:25:09;;;;;;;1.73;1.55;;;;;;;22.71;56.76;95087.38;4902906;29;20238;-81
2022/08/16 01:27:40;;;;;;;2.38;1.70;;;;;;;22.75;56.47;95083.97;4897884;29;20259;-81
2022/08/16 01:30:11;;;;;;;1.73;1.63;;;;;;;22.77;56.42;95093.41;4898621;29;20206;-81
2022/08/16 01:32:41;;;;;;;1.75;1.65;;;;;;;22.72;56.64;95094.97;4898143;29;20199;-81
2022/08/16 01:35:13;;;;;;;2.47;1.60;;;;;;;22.74;56.34;95092.88;4885049;29;20237;-81
2022/08/16 01:37:41;;;;;;;1.65;1.55;;;;;;;22.71;56.91;95098.66;4886808;29;20595;-81
2022/08/16 01:40:10;;;;;;;1.80;1.70;;;;;;;22.73;56.85;95093.94;4899234;29;20199;-81
2022/08/16 01:42:37;;;;;;;2.45;1.80;;;;;;;22.74;56.59;95098.13;4899560;29;20227;-81
2022/08/16 01:45:04;;;;;;;1.92;1.80;;;;;;;22.73;56.55;95099.19;4892517;29;20731;-81
2022/08/16 01:47:32;;;;;;;1.73;1.63;;;;;;;22.73;56.48;95085.28;4889176;29;20262;-82
2022/08/16 01:49:58;;;;;;;1.70;1.60;;;;;;;22.77;56.48;95086.34;4890694;29;20203;-81
2022/08/16 01:52:24;;;;;;;1.60;1.50;;;;;;;22.78;56.18;95090.56;4886378;29;20263;-81
2022/08/16 01:54:51;;;;;;;1.85;1.75;;;;;;;22.73;56.41;95083.44;4903221;29;20226;-81
2022/08/16 01:57:20;;;;;;;1.58;1.48;;;;;;;22.73;56.21;95083.44;4903177;29;20203;-81
2022/08/16 01:59:46;;;;;;;2.00;1.60;;;;;;;22.73;56.31;95086.06;4896143;29;20209;-81
2022/08/16 02:02:12;;;;;;;1.52;1.42;;;;;;;22.72;56.26;95083.69;4904062;29;20206;-81
2022/08/16 02:04:39;;;;;;;1.80;1.70;;;;;;;22.71;56.27;95077.66;4899119;29;20241;-81
2022/08/16 02:07:07;;;;;;;1.50;1.40;;;;;;;22.72;56.34;95078.44;4905729;29;20258;-81
2022/08/16 02:09:36;;;;;;;2.40;1.38;;;;;;;22.75;55.93;95073.47;4896264;29;20207;-81
2022/08/16 02:12:05;;;;;;;2.33;1.70;;;;;;;22.72;56.16;95073.97;4904482;29;20727;-81
2022/08/16 02:14:33;;;;;;;1.80;1.70;;;;;;;22.72;56.46;95071.34;4887186;29;20231;-81
2022/08/16 02:17:04;;;;;;;1.60;1.50;;;;;;;22.71;56.26;95066.38;4885991;29;20219;-81
2022/08/16 02:19:33;;;;;;;1.70;1.60;;;;;;;22.68;56.43;95064.31;4892499;29;20207;-81
2022/08/16 02:22:01;;;;;;;1.65;1.55;;;;;;;22.64;56.27;95066.66;4885085;29;20236;-81
2022/08/16 02:24:28;;;;;;;2.25;1.67;;;;;;;22.57;56.71;95070.59;4898871;29;20243;-81
2022/08/16 02:26:56;;;;;;;1.60;1.50;;;;;;;22.55;56.82;95062.19;4904978;29;20211;-81
2022/08/16 02:29:22;;;;;;;1.50;1.38;;;;;;;22.50;57.18;95070.09;4896705;29;20665;-81
2022/08/16 02:31:51;;;;;;;1.45;1.35;;;;;;;22.46;57.06;95056.72;4907384;29;20211;-81
2022/08/16 02:34:19;;;;;;;1.60;1.30;;;;;;;22.43;56.98;95061.69;4891805;29;20243;-81
2022/08/16 02:36:46;;;;;;;1.50;1.40;;;;;;;22.39;57.20;95067.47;4890294;29;20207;-81
2022/08/16 02:39:14;;;;;;;1.48;1.38;;;;;;;22.38;57.38;95063.25;4899705;29;20200;-81
2022/08/16 02:41:42;;;;;;;1.50;1.40;;;;;;;22.33;57.33;95058.00;4890940;29;20426;-80
2022/08/16 02:44:10;;;;;;;1.55;1.45;;;;;;;22.18;58.40;95058.00;4904350;29;20242;-81
2022/08/16 02:46:37;;;;;;;1.50;1.40;;;;;;;22.19;58.34;95064.84;4910332;29;20391;-81
2022/08/16 02:49:07;;;;;;;2.55;1.70;;;;;;;22.18;58.41;95065.09;4905119;29;20207;-81
2022/08/16 02:51:34;;;;;;;1.60;1.50;;;;;;;22.10;58.63;95063.00;4890120;29;20593;-81
2022/08/16 02:54:01;;;;;;;1.67;1.58;;;;;;;22.11;58.73;95064.56;4902847;29;20778;-81
2022/08/16 02:56:28;;;;;;;3.00;1.50;;;;;;;22.17;58.57;95068.75;4911498;29;20210;-81
2022/08/16 02:58:54;;;;;;;1.50;1.40;;;;;;;22.13;58.38;95068.50;4899154;29;20771;-81
2022/08/16 03:01:23;;;;;;;1.40;1.30;;;;;;;22.01;58.68;95073.19;4911613;29;20214;-81
2022/08/16 03:03:49;;;;;;;1.67;1.55;;;;;;;21.93;59.12;95066.63;4903300;29;20234;-81
2022/08/16 03:06:19;;;;;;;1.63;1.52;;;;;;;21.97;59.02;95069.50;4911264;29;20227;-81
2022/08/16 03:08:46;;;;;;;1.95;1.50;;;;;;;21.99;58.66;95065.56;4898319;29;20288;-81
2022/08/16 03:11:13;;;;;;;1.50;1.40;;;;;;;22.01;58.71;95066.13;4910911;29;20279;-81
2022/08/16 03:13:40;;;;;;;1.55;1.45;;;;;;;22.05;58.55;95069.81;4898491;29;20272;-81
2022/08/16 03:16:07;;;;;;;1.75;1.55;;;;;;;22.09;58.35;95074.53;4894845;29;20192;-81
2022/08/16 03:18:33;;;;;;;1.60;1.50;;;;;;;22.10;58.33;95082.16;4911825;29;20202;-80
2022/08/16 03:21:00;;;;;;;1.55;1.45;;;;;;;22.09;58.58;95072.69;4892241;29;20263;-81
2022/08/16 03:23:28;;;;;;;1.77;1.67;;;;;;;22.09;58.41;95077.16;4900362;29;20243;-81
2022/08/16 03:25:54;;;;;;;2.42;1.50;;;;;;;22.04;58.56;95080.56;4911532;29;20226;-81
2022/08/16 03:28:20;;;;;;;1.65;1.50;;;;;;;22.01;58.75;95092.34;4903588;29;20203;-81
2022/08/16 03:30:47;;;;;;;1.80;1.70;;;;;;;21.91;59.14;95084.44;4908391;29;20228;-81
2022/08/16 03:33:14;;;;;;;1.52;1.42;;;;;;;21.92;59.18;95085.22;4904255;29;20256;-81
2022/08/16 03:35:41;;;;;;;2.70;1.50;;;;;;;21.94;59.27;95085.72;4891935;29;20238;-82
2022/08/16 03:38:10;;;;;;;2.28;1.45;;;;;;;21.90;59.19;95087.31;4898148;29;20223;-81
2022/08/16 03:40:38;;;;;;;1.58;1.40;;;;;;;21.85;59.15;95082.06;4894967;29;20211;-81
2022/08/16 03:43:08;;;;;;;1.63;1.52;;;;;;;21.87;59.33;95075.53;4896297;29;20274;-81
2022/08/16 03:45:35;;;;;;;1.90;1.70;;;;;;;21.84;59.17;95083.09;4910450;29;20235;-81
2022/08/16 03:48:03;;;;;;;2.30;1.75;;;;;;;21.79;59.42;95083.88;4895797;29;20612;-81
2022/08/16 03:50:31;;;;;;;1.70;1.33;;;;;;;21.73;59.73;95086.75;4897254;29;20203;-81
2022/08/16 03:52:58;;;;;;;1.42;1.33;;;;;;;21.75;59.51;95090.69;4895570;29;20254;-81
2022/08/16 03:55:25;;;;;;;1.58;1.48;;;;;;;21.76;59.42;95088.84;4891735;29;20238;-81
2022/08/16 03:57:54;;;;;;;1.60;1.50;;;;;;;21.65;59.72;95095.91;4908699;29;20233;-81
2022/08/16 04:00:24;;;;;;;1.65;1.55;;;;;;;21.64;59.79;95079.38;4894096;29;20204;-81
2022/08/16 04:02:53;;;;;;;1.55;1.33;;;;;;;21.66;59.58;95085.16;4900126;29;20639;-81
2022/08/16 04:05:20;;;;;;;1.50;1.40;;;;;;;21.69;59.71;95076.00;4891808;29;20243;-81
2022/08/16 04:07:46;;;;;;;1.75;1.50;;;;;;;21.72;59.32;95083.34;4896392;29;20206;-81
2022/08/16 04:10:14;;;;;;;2.80;1.63;;;;;;;21.71;59.30;95077.31;4900207;29;20646;-81
2022/08/16 04:12:41;;;;;;;1.42;1.33;;;;;;;21.65;59.10;95078.34;4910803;29;20231;-80
2022/08/16 04:15:12;;;;;;;1.50;1.40;;;;;;;21.62;59.44;95076.25;4910325;29;20235;-81
2022/08/16 04:17:40;;;;;;;1.45;1.35;;;;;;;21.58;59.58;95090.88;4907799;29;20243;-80
2022/08/16 04:20:08;;;;;;;1.80;1.70;;;;;;;21.56;59.42;95079.88;4903116;29;20227;-81
2022/08/16 04:22:35;;;;;;;1.70;1.52;;;;;;;21.37;59.88;95084.00;4899832;29;20203;-81
2022/08/16 04:25:02;;;;;;;2.35;1.65;;;;;;;21.34;60.12;95081.91;4909644;29;20230;-80
2022/08/16 04:27:29;;;;;;;3.13;1.77;;;;;;;21.27;59.98;95083.97;4910435;29;20571;-81
2022/08/16 04:29:56;;;;;;;1.67;1.48;;;;;;;21.29;60.12;95080.06;4909964;29;20266;-81
2022/08/16 04:32:32;;;;;;;2.28;1.70;;;;;;;21.23;60.53;95082.91;4909484;29;20207;-81
2022/08/16 04:35:01;;;;;;;2.75;1.80;;;;;;;21.19;60.53;95094.88;4909513;29;20258;-80
2022/08/16 04:37:27;;;;;;;2.28;1.70;;;;;;;21.19;60.82;95092.25;4906252;29;20679;-83
2022/08/16 04:39:54;;;;;;;1.75;1.65;;;;;;;21.16;61.00;95096.22;4898667;29;20218;-83
2022/08/16 04:42:20;;;;;;;1.95;1.85;;;;;;;21.18;60.78;95098.53;4888121;29;20782;-84
2022/08/16 04:44:48;;;;;;;2.08;1.83;;;;;;;21.14;61.56;95100.91;4896819;29;20246;-84
2022/08/16 04:47:15;;;;;;;2.47;1.98;;;;;;;21.20;61.19;95099.91;4903644;29;20219;-84
2022/08/16 04:49:43;;;;;;;1.90;1.70;;;;;;;21.20;61.55;95107.75;4903930;29;20211;-81
2022/08/16 04:52:09;;;;;;;2.53;2.30;;;;;;;21.28;61.24;95104.66;4909703;29;20206;-81
2022/08/16 04:54:36;;;;;;;2.45;2.25;;;;;;;21.31;61.29;95100.75;4909286;29;20239;-81
2022/08/16 04:57:02;;;;;;;5.10;3.17;;;;;;;21.24;61.86;95106.22;4909243;29;20206;-81
2022/08/16 04:59:29;;;;;;;3.30;2.40;;;;;;;21.21;62.21;95103.31;4911905;29;20266;-81
2022/08/16 05:01:55;;;;;;;4.00;2.10;;;;;;;21.18;62.10;95098.53;4909916;29;20206;-81
2022/08/16 05:04:22;;;;;;;2.53;1.85;;;;;;;21.16;61.91;95113.75;4898784;29;20605;-81
2022/08/16 05:06:50;;;;;;;3.38;3.08;;;;;;;21.22;61.99;95115.34;4890877;29;20238;-81
2022/08/16 05:09:17;;;;;;;5.28;4.78;;;;;;;21.21;61.87;95116.41;4891292;29;20208;-81
2022/08/16 05:11:44;;;;;;;4.90;4.38;;;;;;;21.25;62.15;95114.84;4891072;29;20211;-80
2022/08/16 05:14:11;;;;;;;3.78;2.80;;;;;;;21.27;62.09;95115.38;4890906;29;20303;-81
2022/08/16 05:16:37;;;;;;;2.28;2.08;;;;;;;21.17;62.34;95115.28;4890041;29;20232;-81
2022/08/16 05:19:05;;;;;;;2.35;2.00;;;;;;;21.15;62.46;95107.72;4890281;29;20215;-80
2022/08/16 05:21:34;;;;;;;2.10;2.00;;;;;;;21.15;62.42;95114.78;4890175;29;20228;-81
2022/08/16 05:24:02;;;;;;;6.38;5.78;;;;;;;21.20;62.67;95110.38;4889912;29;20243;-81
2022/08/16 05:26:30;;;;;;;5.57;5.07;;;;;;;21.18;62.56;95117.66;4890066;29;20295;-81
2022/08/16 05:28:58;;;;;;;2.40;2.30;;;;;;;21.11;62.95;95109.25;4890460;29;20203;-81
2022/08/16 05:31:25;;;;;;;2.10;2.00;;;;;;;21.15;62.67;95112.16;4888886;29;20720;-81
2022/08/16 05:33:52;;;;;;;2.40;2.20;;;;;;;21.27;62.50;95115.38;4888283;29;20244;-81
2022/08/16 05:36:18;;;;;;;2.67;2.47;;;;;;;21.41;62.04;95119.13;4889107;29;20213;-81
2022/08/16 05:38:45;;;;;;;2.75;2.55;;;;;;;21.44;62.26;95116.00;4888861;29;20208;-81
2022/08/16 05:41:13;;;;;;;3.80;2.25;;;;;;;21.52;61.79;95122.59;4888363;29;20215;-81
2022/08/16 05:43:40;;;;;;;2.33;2.15;;;;;;;21.62;61.31;95130.47;4893782;29;20238;-81
2022/08/16 05:46:07;;;;;;;4.03;2.60;;;;;;;21.73;61.16;95124.25;4907946;29;20226;-81
2022/08/16 05:48:33;;;;;;;2.22;2.10;;;;;;;21.72;61.27;95120.03;4907255;29;20207;-81
2022/08/16 05:51:00;;;;;;;2.13;2.03;;;;;;;21.72;60.91;95120.03;4907981;29;20210;-81
2022/08/16 05:53:26;;;;;;;2.28;2.08;;;;;;;21.78;60.57;95121.63;4907260;29;20255;-81
2022/08/16 05:55:52;;;;;;;3.38;2.10;;;;;;;21.79;59.94;95125.81;4909104;29;20206;-81
2022/08/16 05:58:20;;;;;;;2.47;1.92;;;;;;;21.90;59.95;95121.41;4908162;29;20207;-81
2022/08/16 06:00:46;;;;;;;3.20;2.33;;;;;;;22.07;59.50;95126.44;4907730;29;20294;-81
2022/08/16 06:03:13;;;;;;;2.40;2.13;;;;;;;22.14;59.62;95121.72;4907930;29;20222;-81
2022/08/16 06:05:39;;;;;;;2.40;2.20;;;;;;;22.19;58.95;95125.16;4907234;29;20238;-81
2022/08/16 06:08:06;;;;;;;3.70;2.10;;;;;;;22.22;58.55;95122.00;4907700;29;20206;-81
2022/08/16 06:10:32;;;;;;;2.20;2.10;;;;;;;22.30;58.09;95128.59;4907623;29;20206;-81
2022/08/16 06:12:58;;;;;;;2.50;2.30;;;;;;;22.39;57.97;95127.00;4907309;29;20226;-81
2022/08/16 06:15:27;;;;;;;2.13;1.95;;;;;;;22.42;57.47;95131.72;4903389;29;20238;-84
2022/08/16 06:17:53;;;;;;;2.70;1.80;;;;;;;22.50;57.24;95127.81;4900218;29;20207;-83
2022/08/16 06:20:22;;;;;;;2.10;2.00;;;;;;;22.56;57.07;95130.16;4905063;29;20247;-81
2022/08/16 06:22:49;;;;;;;2.55;2.00;;;;;;;22.58;56.93;95125.44;4906750;29;20255;-80
2022/08/16 06:25:16;;;;;;;5.57;2.05;;;;;;;22.65;56.48;95131.22;4906700;29;20234;-81
2022/08/16 06:27:42;;;;;;;2.33;2.13;;;;;;;22.71;56.29;95124.13;4907333;29;20277;-81
2022/08/16 06:30:11;;;;;;;2.20;2.00;;;;;;;22.73;56.01;95122.81;4909130;29;20207;-81
2022/08/16 06:32:38;;;;;;;3.03;2.20;;;;;;;22.74;55.97;95124.38;4910342;29;20233;-84
2022/08/16 06:35:06;;;;;;;3.33;2.15;;;;;;;22.84;56.00;95130.72;4907881;29;20262;-81
2022/08/16 06:37:33;;;;;;;2.40;2.20;;;;;;;22.83;55.47;95131.75;4907298;29;20210;-81
2022/08/16 06:39:59;;;;;;;2.45;2.25;;;;;;;22.86;55.58;95126.78;4907708;29;20227;-81
2022/08/16 06:42:25;;;;;;;2.67;2.00;;;;;;;22.98;55.20;95131.75;4904868;29;20206;-81
2022/08/16 06:44:52;;;;;;;2.55;2.30;;;;;;;23.07;54.63;95130.16;4906190;29;20243;-82
2022/08/16 06:47:18;;;;;;;2.05;1.85;;;;;;;23.15;54.17;95140.13;4906715;29;20254;-82
2022/08/16 06:49:46;;;;;;;2.00;1.90;;;;;;;23.18;53.98;95144.06;4905978;29;20274;-81
2022/08/16 06:52:12;;;;;;;3.25;2.15;;;;;;;23.28;53.61;95144.03;4905663;29;20210;-81
2022/08/16 06:54:39;;;;;;;2.85;1.88;;;;;;;23.33;53.16;95147.41;4907874;29;20234;-81
2022/08/16 06:57:05;;;;;;;2.28;2.05;;;;;;;23.42;52.59;95145.03;4906302;29;20203;-82
2022/08/16 06:59:32;;;;;;;2.88;1.90;;;;;;;23.48;52.14;95143.16;4905906;29;20297;-82
2022/08/16 07:01:59;;;;;;;2.28;1.80;;;;;;;23.52;52.28;95139.00;4904803;29;20231;-81
2022/08/16 07:04:25;;;;;;;2.47;1.80;;;;;;;23.59;51.78;95139.50;4904779;29;20322;-82
2022/08/16 07:06:53;;;;;;;2.55;2.00;;;;;;;23.59;51.69;95142.91;4909689;29;20259;-82
2022/08/16 07:09:20;;;;;;;2.03;1.80;;;;;;;23.65;50.60;95138.44;4910564;29;20207;-81
2022/08/16 07:11:46;;;;;;;2.20;2.00;;;;;;;23.59;50.93;95135.03;4910281;29;20207;-82
2022/08/16 07:14:13;;;;;;;2.83;1.98;;;;;;;23.67;51.09;95131.03;4910244;29;20242;-81
2022/08/16 07:16:40;;;;;;;3.67;2.40;;;;;;;23.72;49.82;95134.44;4910640;29;20203;-81
2022/08/16 07:19:07;;;;;;;2.28;2.00;;;;;;;23.88;50.32;95135.16;4909699;29;20219;-82
2022/08/16 07:21:35;;;;;;;2.33;1.83;;;;;;;24.09;49.96;95133.97;4908642;29;20849;-82
2022/08/16 07:24:04;;;;;;;2.75;1.90;;;;;;;24.31;49.61;95131.00;4908843;29;20245;-81
2022/08/16 07:26:30;;;;;;;3.42;2.00;;;;;;;24.45;48.73;95131.94;4908994;29;20234;-81
2022/08/16 07:28:57;;;;;;;2.80;1.88;;;;;;;24.48;48.43;95137.72;4908957;29;20213;-81
2022/08/16 07:31:23;;;;;;;2.70;2.00;;;;;;;24.66;48.33;95135.19;4908305;29;20234;-81
2022/08/16 07:33:50;;;;;;;2.30;2.10;;;;;;;24.77;48.60;95128.03;4907978;29;20528;-82
2022/08/16 07:36:16;;;;;;;2.67;2.13;;;;;;;24.90;48.25;95132.63;4907320;29;20235;-82
2022/08/16 07:38:43;;;;;;;3.05;1.95;;;;;;;25.08;47.83;95131.19;4911392;29;20202;-82
2022/08/16 07:41:11;;;;;;;2.47;2.28;;;;;;;25.13;47.45;95131.13;4910487;29;20202;-81
2022/08/16 07:43:38;;;;;;;2.40;2.03;;;;;;;25.15;46.57;95123.75;4910872;29;20251;-81
2022/08/16 07:46:04;;;;;;;6.00;2.28;;;;;;;25.20;46.20;95125.53;4911542;29;20210;-82
2022/08/16 07:48:31;;;;;;;2.58;1.92;;;;;;;25.20;45.76;95125.53;4911465;29;20746;-82
2022/08/16 07:50:57;;;;;;;2.13;2.03;;;;;;;25.20;44.86;95136.09;4910667;29;20210;-81
2022/08/16 07:53:24;;;;;;;2.47;2.10;;;;;;;25.27;45.05;95129.41;4910438;29;20231;-81
2022/08/16 07:55:50;;;;;;;2.70;2.20;;;;;;;25.29;44.77;95132.53;4911562;29;20210;-82
2022/08/16 07:58:19;;;;;;;2.40;2.10;;;;;;;25.44;44.31;95129.75;4911142;29;20213;-81
2022/08/16 08:00:45;;;;;;;2.53;2.10;;;;;;;25.59;44.13;95122.75;4910905;29;20219;-81
2022/08/16 08:03:12;;;;;;;2.60;2.40;;;;;;;25.86;44.59;95122.94;4912294;29;20226;-81
2022/08/16 08:05:39;;;;;;;2.28;2.08;;;;;;;25.86;43.63;95125.56;4912000;29;20231;-81
2022/08/16 08:08:06;;;;;;;2.10;2.00;;;;;;;26.08;43.22;95131.09;4912417;29;20450;-82
2022/08/16 08:10:32;;;;;;;2.35;2.00;;;;;;;26.11;42.94;95132.38;4912913;29;20210;-81
2022/08/16 08:12:58;;;;;;;2.30;2.20;;;;;;;26.18;42.61;95138.06;4913517;29;20251;-81
2022/08/16 08:15:27;;;;;;;3.25;2.25;;;;;;;26.34;43.06;95123.63;4912975;29;20246;-81
2022/08/16 08:17:53;;;;;;;3.30;2.28;;;;;;;26.48;42.82;95129.75;4912611;29;20210;-82
2022/08/16 08:20:25;;;;;;;2.58;2.38;;;;;;;26.71;42.37;95125.44;4911745;29;20286;-82
2022/08/16 08:22:52;;;;;;;2.63;2.42;;;;;;;26.91;41.89;95124.31;4911394;29;20877;-82
2022/08/16 08:25:20;;;;;;;2.95;2.42;;;;;;;27.12;41.45;95127.41;4910627;29;20318;-82
2022/08/16 08:27:47;;;;;;;2.60;2.40;;;;;;;27.22;41.75;95134.34;4910876;29;20901;-82
2022/08/16 08:30:14;;;;;;;5.22;2.28;;;;;;;27.40;41.14;95138.78;4911019;29;20214;-82
2022/08/16 08:32:41;;;;;;;3.58;2.33;;;;;;;27.41;41.38;95141.13;4910972;29;20211;-81
2022/08/16 08:35:10;;;;;;;3.15;2.20;;;;;;;27.46;40.45;95134.97;4910432;29;20238;-82
2022/08/16 08:37:37;;;;;;;2.50;2.30;;;;;;;27.63;40.29;95145.00;4910332;29;20222;-81
2022/08/16 08:40:05;;;;;;;2.60;2.40;;;;;;;27.69;39.28;95138.53;4909961;29;20235;-82
2022/08/16 08:42:32;;;;;;;2.70;2.50;;;;;;;27.75;39.43;95135.47;4910061;29;20230;-82
2022/08/16 08:44:58;;;;;;;2.35;2.15;;;;;;;27.88;39.19;95131.25;4910961;29;20298;-81
2022/08/16 08:47:26;;;;;;;2.20;2.10;;;;;;;27.90;39.24;95134.41;4910412;29;20230;-82
2022/08/16 08:49:55;;;;;;;3.80;2.38;;;;;;;27.84;38.79;95128.41;4910220;29;20249;-82
2022/08/16 08:52:22;;;;;;;3.55;2.42;;;;;;;27.89;38.30;95129.41;4908954;29;20338;-82
2022/08/16 08:54:48;;;;;;;2.75;2.28;;;;;;;28.05;39.05;95128.00;4910601;29;20274;-81
2022/08/16 08:57:17;;;;;;;4.70;2.60;;;;;;;28.15;38.78;95128.53;4911020;29;20203;-82
2022/08/16 08:59:44;;;;;;;2.67;2.47;;;;;;;28.25;38.05;95130.22;4910825;29;20207;-82
2022/08/16 09:02:11;;;;;;;2.50;2.30;;;;;;;28.39;37.51;95123.00;4909380;29;20214;-82
2022/08/16 09:04:37;;;;;;;4.40;2.65;;;;;;;28.19;37.85;95132.19;4909532;29;20238;-82
2022/08/16 09:07:05;;;;;;;2.30;2.20;;;;;;;28.23;37.50;95132.38;4910492;29;20227;-82
2022/08/16 09:09:32;;;;;;;3.40;2.63;;;;;;;28.32;37.50;95138.50;4909886;29;20225;-82
2022/08/16 09:11:58;;;;;;;4.60;2.45;;;;;;;28.53;37.25;95136.19;4909676;29;20206;-82
2022/08/16 09:14:25;;;;;;;2.72;2.53;;;;;;;28.63;36.84;95135.19;4910509;29;20239;-82
2022/08/16 09:16:52;;;;;;;3.05;2.70;;;;;;;28.72;36.64;95126.19;4910780;29;20203;-82
2022/08/16 09:19:18;;;;;;;2.88;2.50;;;;;;;28.79;36.00;95133.72;4909935;29;20286;-82
2022/08/16 09:21:48;;;;;;;2.55;2.33;;;;;;;28.42;36.97;95126.94;4909422;29;20206;-82
2022/08/16 09:24:16;;;;;;;3.25;2.75;;;;;;;28.44;36.93;95125.53;4909045;29;20242;-82
2022/08/16 09:26:42;;;;;;;3.70;2.50;;;;;;;28.42;36.86;95121.63;4909838;29;20262;-82
2022/08/16 09:29:08;;;;;;;4.25;2.75;;;;;;;28.77;37.18;95125.28;4909494;29;20207;-82
2022/08/16 09:31:36;;;;;;;2.55;2.35;;;;;;;29.06;36.13;95127.50;4909370;29;20209;-82
2022/08/16 09:34:03;;;;;;;2.50;2.35;;;;;;;29.22;34.99;95131.34;4909478;29;20245;-82
2022/08/16 09:36:29;;;;;;;2.55;2.35;;;;;;;29.25;35.29;95122.75;4909156;29;20491;-83
2022/08/16 09:38:56;;;;;;;3.25;2.40;;;;;;;29.36;35.12;95125.94;4908507;29;20262;-81
2022/08/16 09:41:24;;;;;;;3.65;2.47;;;;;;;29.60;34.84;95121.06;4908980;29;20203;-82
2022/08/16 09:43:51;;;;;;;4.22;2.78;;;;;;;29.82;34.80;95126.28;4908387;29;20243;-82
2022/08/16 09:46:17;;;;;;;4.07;2.40;;;;;;;29.98;34.74;95115.25;4908732;29;20389;-82
2022/08/16 09:48:43;;;;;;;2.45;2.25;;;;;;;30.03;34.55;95110.53;4909180;29;20235;-82
2022/08/16 09:51:11;;;;;;;2.63;2.42;;;;;;;29.76;34.89;95122.19;4909092;29;20246;-82
2022/08/16 09:53:38;;;;;;;2.58;2.38;;;;;;;29.77;35.14;95115.78;4908678;29;20239;-82
2022/08/16 09:56:10;;;;;;;2.58;2.38;;;;;;;29.77;34.43;95118.44;4909384;29;20235;-81
2022/08/16 09:58:38;;;;;;;2.58;2.38;;;;;;;29.97;33.58;95117.09;4909404;29;20209;-82
2022/08/16 10:01:05;;;;;;;2.40;2.20;;;;;;;30.21;33.54;95117.41;4908990;29;20236;-82
2022/08/16 10:03:31;;;;;;;2.97;2.50;;;;;;;30.21;32.79;95114.75;4907742;29;20274;-82
2022/08/16 10:05:58;;;;;;;2.60;2.40;;;;;;;30.38;33.34;95110.56;4913365;29;20203;-81
2022/08/16 10:08:24;;;;;;;2.70;2.50;;;;;;;30.48;33.82;95111.03;4913143;29;20233;-82
2022/08/16 10:13:33;;;;;;;2.78;2.40;;;;;;;30.66;32.69;95109.16;4912147;29;20254;-82
2022/08/16 10:16:01;;;;;;;2.53;2.33;;;;;;;30.69;31.67;95105.88;4912074;29;20198;-82
2022/08/16 10:18:29;;;;;;;4.25;2.35;;;;;;;30.74;32.55;95100.41;4912176;29;20207;-82
2022/08/16 10:20:58;;;;;;;2.88;2.58;;;;;;;30.88;32.04;95094.88;4911923;29;20270;-82
2022/08/16 10:23:25;;;;;;;2.40;2.22;;;;;;;31.09;31.57;95095.75;4911554;29;20251;-82
2022/08/16 10:25:51;;;;;;;2.47;2.28;;;;;;;31.09;30.42;95097.63;4911874;29;20714;-82
2022/08/16 10:28:18;;;;;;;2.80;2.55;;;;;;;31.08;30.12;95093.41;4912725;29;20234;-82
2022/08/16 10:30:44;;;;;;;2.70;2.50;;;;;;;31.10;30.54;95089.34;4911965;29;20274;-83
2022/08/16 10:33:13;;;;;;;3.47;2.45;;;;;;;31.06;31.09;95096.38;4911759;29;20219;-81
2022/08/16 10:35:40;;;;;;;2.83;2.60;;;;;;;30.84;30.53;95101.94;4910893;29;20667;-82
2022/08/16 10:38:06;;;;;;;2.50;2.30;;;;;;;30.16;30.44;95103.53;4912163;29;20211;-82
2022/08/16 10:40:33;;;;;;;3.17;2.33;;;;;;;29.94;31.35;95100.97;4910443;29;20263;-81
2022/08/16 10:43:00;;;;;;;2.83;2.30;;;;;;;29.95;31.66;95102.53;4912028;29;20750;-82
2022/08/16 10:45:27;;;;;;;2.47;2.28;;;;;;;30.16;31.58;95100.88;4893062;29;20271;-82
2022/08/16 10:47:55;;;;;;;2.78;2.55;;;;;;;29.78;31.96;95096.13;4893555;29;20235;-82
2022/08/16 10:50:24;;;;;;;3.53;2.60;;;;;;;29.75;31.99;95102.03;4893404;29;20479;-82
2022/08/16 10:52:52;;;;;;;3.42;2.45;;;;;;;29.74;31.94;95097.03;4891533;29;20301;-82
2022/08/16 10:55:18;;;;;;;2.72;2.53;;;;;;;30.01;32.05;95091.50;4892629;29;20238;-82
2022/08/16 10:57:45;;;;;;;3.22;2.55;;;;;;;29.81;31.66;95094.72;4892332;29;20232;-82
2022/08/16 11:00:15;;;;;;;2.67;2.47;;;;;;;29.97;31.18;95098.50;4892579;29;20450;-82
2022/08/16 11:02:42;;;;;;;2.63;2.30;;;;;;;30.09;30.54;95097.91;4892653;29;20212;-81
2022/08/16 11:05:11;;;;;;;2.28;2.13;;;;;;;30.22;30.24;95086.34;4909624;29;20242;-81
2022/08/16 11:07:42;;;;;;;2.67;2.08;;;;;;;30.38;28.46;95100.72;4911059;29;20230;-83
2022/08/16 11:10:10;;;;;;;2.80;2.50;;;;;;;30.43;28.48;95095.22;4909584;29;20211;-82
2022/08/16 11:12:36;;;;;;;2.95;2.47;;;;;;;30.47;29.51;95101.50;4910919;29;20216;-82
2022/08/16 11:15:04;;;;;;;2.38;2.28;;;;;;;30.56;29.82;95099.66;4910182;29;20239;-82
2022/08/16 11:17:31;;;;;;;3.60;2.40;;;;;;;30.68;29.54;95099.00;4910467;29;20235;-82
2022/08/16 11:19:57;;;;;;;2.80;2.47;;;;;;;30.67;29.46;95109.94;4910595;29;20222;-82
2022/08/16 11:22:25;;;;;;;2.70;2.50;;;;;;;30.82;29.71;95099.56;4910686;29;20215;-82
2022/08/16 11:24:53;;;;;;;2.20;2.10;;;;;;;30.84;29.21;95099.25;4910111;29;20263;-82
2022/08/16 11:27:21;;;;;;;2.50;2.30;;;;;;;30.95;29.53;95103.16;4910798;29;20203;-82
2022/08/16 11:29:49;;;;;;;2.53;2.33;;;;;;;30.92;28.43;95099.25;4910973;29;20285;-82
2022/08/16 11:32:16;;;;;;;2.85;2.53;;;;;;;31.04;28.55;95095.16;4910835;29;20293;-82
2022/08/16 11:34:43;;;;;;;2.75;2.55;;;;;;;31.17;29.49;95102.19;4909221;29;20330;-82
2022/08/16 11:37:09;;;;;;;2.78;2.55;;;;;;;31.08;29.99;95094.19;4909561;29;20554;-83